AU-0043 weather

Chittering Airstrip
Chittering, Western Australia, Australia

Public forecast

Using degrees Celsius for public forecast. Weather courtesy of forecast.io.

METAR (pilot weather report)

Closest report is RAAF Base Pearce, 11.1 nm (20.6 km) SW. Retrieved 2019/04/22 14:00 UTC (14 minutes ago):

YPEA 221400Z AUTO 17004KT 9999 // NCD 14/07 Q1024

TAF (pilot weather forecast)

Closest forecast is RAAF Base Pearce, 11.1 nm (20.6 km) SW. Retrieved 2019/04/22 12:00 UTC (2 hours ago):

TAF YPEA 221048Z 2212/2306 13005KT CAVOK FM230000 09010KT CAVOK